sensor_id;sensor_type;location;lat;lon;timestamp;P1;durP1;ratioP1;P2;durP2;ratioP2
35612;SDS011;22054;51.646;7.078;2022-12-18T00:01:04;9.40;;;9.00;;
35612;SDS011;22054;51.646;7.078;2022-12-18T00:03:38;8.80;;;8.50;;
35612;SDS011;22054;51.646;7.078;2022-12-18T00:06:03;8.65;;;8.35;;
35612;SDS011;22054;51.646;7.078;2022-12-18T00:08:29;8.88;;;8.57;;
35612;SDS011;22054;51.646;7.078;2022-12-18T00:10:55;8.88;;;8.57;;
35612;SDS011;22054;51.646;7.078;2022-12-18T00:13:28;8.77;;;8.48;;
35612;SDS011;22054;51.646;7.078;2022-12-18T00:15:54;8.48;;;8.18;;
35612;SDS011;22054;51.646;7.078;2022-12-18T00:18:19;8.48;;;8.18;;
35612;SDS011;22054;51.646;7.078;2022-12-18T00:20:47;9.30;;;8.90;;
35612;SDS011;22054;51.646;7.078;2022-12-18T00:23:13;8.45;;;8.15;;
35612;SDS011;22054;51.646;7.078;2022-12-18T00:25:39;8.80;;;8.50;;
35612;SDS011;22054;51.646;7.078;2022-12-18T00:28:05;8.57;;;8.27;;
35612;SDS011;22054;51.646;7.078;2022-12-18T00:30:30;9.20;;;8.80;;
35612;SDS011;22054;51.646;7.078;2022-12-18T00:32:56;9.43;;;9.02;;
35612;SDS011;22054;51.646;7.078;2022-12-18T00:35:22;9.10;;;8.73;;
35612;SDS011;22054;51.646;7.078;2022-12-18T00:37:48;9.30;;;8.90;;
35612;SDS011;22054;51.646;7.078;2022-12-18T00:40:14;8.55;;;8.25;;
35612;SDS011;22054;51.646;7.078;2022-12-18T00:42:39;9.10;;;8.70;;
35612;SDS011;22054;51.646;7.078;2022-12-18T00:45:24;8.90;;;8.57;;
35612;SDS011;22054;51.646;7.078;2022-12-18T00:47:55;9.20;;;8.80;;
35612;SDS011;22054;51.646;7.078;2022-12-18T00:50:22;9.23;;;8.82;;
35612;SDS011;22054;51.646;7.078;2022-12-18T00:52:49;9.48;;;9.07;;
35612;SDS011;22054;51.646;7.078;2022-12-18T00:55:15;9.23;;;8.82;;
35612;SDS011;22054;51.646;7.078;2022-12-18T00:57:42;8.68;;;8.38;;
35612;SDS011;22054;51.646;7.078;2022-12-18T01:00:08;8.80;;;8.50;;
35612;SDS011;22054;51.646;7.078;2022-12-18T01:02:38;8.80;;;8.50;;
35612;SDS011;22054;51.646;7.078;2022-12-18T01:05:04;8.65;;;8.35;;
35612;SDS011;22054;51.646;7.078;2022-12-18T01:07:30;8.63;;;8.32;;
35612;SDS011;22054;51.646;7.078;2022-12-18T01:09:56;8.90;;;8.60;;
35612;SDS011;22054;51.646;7.078;2022-12-18T01:12:22;9.23;;;8.82;;
35612;SDS011;22054;51.646;7.078;2022-12-18T01:14:47;9.15;;;8.75;;
35612;SDS011;22054;51.646;7.078;2022-12-18T01:17:13;8.55;;;8.25;;
35612;SDS011;22054;51.646;7.078;2022-12-18T01:19:39;9.20;;;8.80;;
35612;SDS011;22054;51.646;7.078;2022-12-18T01:22:05;9.65;;;9.25;;
35612;SDS011;22054;51.646;7.078;2022-12-18T01:24:33;8.50;;;8.20;;
35612;SDS011;22054;51.646;7.078;2022-12-18T01:26:58;9.05;;;8.68;;
35612;SDS011;22054;51.646;7.078;2022-12-18T01:29:24;8.50;;;8.20;;
35612;SDS011;22054;51.646;7.078;2022-12-18T01:31:50;8.82;;;8.50;;
35612;SDS011;22054;51.646;7.078;2022-12-18T01:34:16;9.27;;;8.88;;
35612;SDS011;22054;51.646;7.078;2022-12-18T01:36:42;9.20;;;8.80;;
35612;SDS011;22054;51.646;7.078;2022-12-18T01:39:10;9.20;;;8.80;;
35612;SDS011;22054;51.646;7.078;2022-12-18T01:41:39;8.75;;;8.45;;
35612;SDS011;22054;51.646;7.078;2022-12-18T01:50:11;9.48;;;9.07;;
35612;SDS011;22054;51.646;7.078;2022-12-18T01:53:29;9.75;;;9.35;;
35612;SDS011;22054;51.646;7.078;2022-12-18T01:55:49;9.30;;;8.90;;
35612;SDS011;22054;51.646;7.078;2022-12-18T02:00:45;8.55;;;8.25;;
35612;SDS011;22054;51.646;7.078;2022-12-18T02:03:11;9.05;;;8.70;;
35612;SDS011;22054;51.646;7.078;2022-12-18T02:05:52;9.10;;;8.73;;
35612;SDS011;22054;51.646;7.078;2022-12-18T02:11:49;9.13;;;8.73;;
35612;SDS011;22054;51.646;7.078;2022-12-18T02:14:43;9.23;;;8.82;;
35612;SDS011;22054;51.646;7.078;2022-12-18T02:17:28;9.48;;;9.07;;
35612;SDS011;22054;51.646;7.078;2022-12-18T02:20:12;9.10;;;8.70;;
35612;SDS011;22054;51.646;7.078;2022-12-18T02:22:58;9.50;;;9.10;;
35612;SDS011;22054;51.646;7.078;2022-12-18T02:28:26;9.13;;;8.75;;
35612;SDS011;22054;51.646;7.078;2022-12-18T02:30:59;8.85;;;8.55;;
35612;SDS011;22054;51.646;7.078;2022-12-18T02:33:29;8.75;;;8.45;;
35612;SDS011;22054;51.646;7.078;2022-12-18T02:35:55;9.00;;;8.65;;
35612;SDS011;22054;51.646;7.078;2022-12-18T02:38:23;9.05;;;8.70;;
35612;SDS011;22054;51.646;7.078;2022-12-18T02:40:50;9.23;;;8.82;;
35612;SDS011;22054;51.646;7.078;2022-12-18T02:43:18;10.00;;;9.60;;
35612;SDS011;22054;51.646;7.078;2022-12-18T02:48:23;9.88;;;9.48;;
35612;SDS011;22054;51.646;7.078;2022-12-18T02:53:41;6.80;;;6.50;;
35612;SDS011;22054;51.646;7.078;2022-12-18T02:56:15;5.60;;;5.40;;
35612;SDS011;22054;51.646;7.078;2022-12-18T02:58:58;6.07;;;5.88;;
35612;SDS011;22054;51.646;7.078;2022-12-18T03:01:49;7.07;;;6.78;;
35612;SDS011;22054;51.646;7.078;2022-12-18T03:04:37;6.55;;;6.28;;
35612;SDS011;22054;51.646;7.078;2022-12-18T03:07:12;6.78;;;6.47;;
35612;SDS011;22054;51.646;7.078;2022-12-18T03:09:45;7.80;;;7.50;;
35612;SDS011;22054;51.646;7.078;2022-12-18T03:12:17;7.32;;;7.03;;
35612;SDS011;22054;51.646;7.078;2022-12-18T03:17:34;9.30;;;8.90;;
35612;SDS011;22054;51.646;7.078;2022-12-18T03:20:10;8.25;;;7.95;;
35612;SDS011;22054;51.646;7.078;2022-12-18T03:22:40;8.68;;;8.38;;
35612;SDS011;22054;51.646;7.078;2022-12-18T03:25:10;7.75;;;7.45;;
35612;SDS011;22054;51.646;7.078;2022-12-18T03:27:40;8.75;;;8.45;;
35612;SDS011;22054;51.646;7.078;2022-12-18T03:30:12;8.73;;;8.43;;
35612;SDS011;22054;51.646;7.078;2022-12-18T03:35:12;8.80;;;8.50;;
35612;SDS011;22054;51.646;7.078;2022-12-18T03:37:44;9.15;;;8.75;;
35612;SDS011;22054;51.646;7.078;2022-12-18T03:40:10;8.05;;;7.75;;
35612;SDS011;22054;51.646;7.078;2022-12-18T03:42:46;8.13;;;7.82;;
35612;SDS011;22054;51.646;7.078;2022-12-18T03:48:18;8.68;;;8.38;;
35612;SDS011;22054;51.646;7.078;2022-12-18T03:51:01;8.70;;;8.40;;
35612;SDS011;22054;51.646;7.078;2022-12-18T03:53:40;7.85;;;7.55;;
35612;SDS011;22054;51.646;7.078;2022-12-18T03:56:16;9.50;;;9.10;;
35612;SDS011;22054;51.646;7.078;2022-12-18T03:58:43;9.57;;;9.18;;
35612;SDS011;22054;51.646;7.078;2022-12-18T04:01:12;9.90;;;9.50;;
35612;SDS011;22054;51.646;7.078;2022-12-18T04:03:40;9.13;;;8.73;;
35612;SDS011;22054;51.646;7.078;2022-12-18T04:06:07;9.50;;;9.10;;
35612;SDS011;22054;51.646;7.078;2022-12-18T04:08:33;9.50;;;9.10;;
35612;SDS011;22054;51.646;7.078;2022-12-18T04:11:00;8.75;;;8.45;;
35612;SDS011;22054;51.646;7.078;2022-12-18T04:13:32;9.20;;;8.80;;
35612;SDS011;22054;51.646;7.078;2022-12-18T04:16:03;8.68;;;8.38;;
35612;SDS011;22054;51.646;7.078;2022-12-18T04:18:29;8.90;;;8.60;;
35612;SDS011;22054;51.646;7.078;2022-12-18T04:20:55;9.15;;;8.75;;
35612;SDS011;22054;51.646;7.078;2022-12-18T04:23:20;9.43;;;9.02;;
35612;SDS011;22054;51.646;7.078;2022-12-18T04:25:46;8.93;;;8.63;;
35612;SDS011;22054;51.646;7.078;2022-12-18T04:28:13;9.45;;;9.05;;
35612;SDS011;22054;51.646;7.078;2022-12-18T04:30:38;9.43;;;9.02;;
35612;SDS011;22054;51.646;7.078;2022-12-18T04:33:08;8.90;;;8.60;;
35612;SDS011;22054;51.646;7.078;2022-12-18T04:35:38;9.57;;;9.18;;
35612;SDS011;22054;51.646;7.078;2022-12-18T04:38:05;9.95;;;9.55;;
35612;SDS011;22054;51.646;7.078;2022-12-18T04:40:33;9.00;;;8.65;;
35612;SDS011;22054;51.646;7.078;2022-12-18T04:42:59;9.30;;;8.90;;
35612;SDS011;22054;51.646;7.078;2022-12-18T04:45:25;8.50;;;8.20;;
35612;SDS011;22054;51.646;7.078;2022-12-18T04:47:51;8.63;;;8.32;;
35612;SDS011;22054;51.646;7.078;2022-12-18T04:50:16;8.80;;;8.50;;
35612;SDS011;22054;51.646;7.078;2022-12-18T04:52:42;8.77;;;8.48;;
35612;SDS011;22054;51.646;7.078;2022-12-18T04:55:08;8.50;;;8.20;;
35612;SDS011;22054;51.646;7.078;2022-12-18T04:57:34;9.48;;;9.07;;
35612;SDS011;22054;51.646;7.078;2022-12-18T04:59:59;8.48;;;8.18;;
35612;SDS011;22054;51.646;7.078;2022-12-18T05:02:28;8.85;;;8.55;;
35612;SDS011;22054;51.646;7.078;2022-12-18T05:04:54;8.88;;;8.57;;
35612;SDS011;22054;51.646;7.078;2022-12-18T05:07:19;8.65;;;8.35;;
35612;SDS011;22054;51.646;7.078;2022-12-18T05:09:45;9.18;;;8.77;;
35612;SDS011;22054;51.646;7.078;2022-12-18T05:12:11;8.48;;;8.18;;
35612;SDS011;22054;51.646;7.078;2022-12-18T05:14:36;8.65;;;8.35;;
35612;SDS011;22054;51.646;7.078;2022-12-18T05:17:02;9.10;;;8.70;;
35612;SDS011;22054;51.646;7.078;2022-12-18T05:19:28;8.23;;;7.93;;
35612;SDS011;22054;51.646;7.078;2022-12-18T05:21:53;8.45;;;8.15;;
35612;SDS011;22054;51.646;7.078;2022-12-18T05:24:19;8.50;;;8.20;;
35612;SDS011;22054;51.646;7.078;2022-12-18T05:26:48;8.15;;;7.85;;
35612;SDS011;22054;51.646;7.078;2022-12-18T05:29:14;8.83;;;8.53;;
35612;SDS011;22054;51.646;7.078;2022-12-18T05:31:40;8.20;;;7.90;;
35612;SDS011;22054;51.646;7.078;2022-12-18T05:34:05;8.30;;;8.00;;
35612;SDS011;22054;51.646;7.078;2022-12-18T05:36:31;8.45;;;8.15;;
35612;SDS011;22054;51.646;7.078;2022-12-18T05:38:57;8.73;;;8.43;;
35612;SDS011;22054;51.646;7.078;2022-12-18T05:41:23;8.07;;;7.78;;
35612;SDS011;22054;51.646;7.078;2022-12-18T05:43:48;8.35;;;8.05;;
35612;SDS011;22054;51.646;7.078;2022-12-18T05:46:15;8.65;;;8.35;;
35612;SDS011;22054;51.646;7.078;2022-12-18T05:48:45;8.63;;;8.32;;
35612;SDS011;22054;51.646;7.078;2022-12-18T05:51:16;8.25;;;7.95;;
35612;SDS011;22054;51.646;7.078;2022-12-18T05:53:44;8.48;;;8.18;;
35612;SDS011;22054;51.646;7.078;2022-12-18T05:56:11;8.50;;;8.20;;
35612;SDS011;22054;51.646;7.078;2022-12-18T05:58:40;8.27;;;7.97;;
35612;SDS011;22054;51.646;7.078;2022-12-18T06:01:13;8.23;;;7.93;;
35612;SDS011;22054;51.646;7.078;2022-12-18T06:03:45;8.02;;;7.72;;
35612;SDS011;22054;51.646;7.078;2022-12-18T06:06:44;8.52;;;8.23;;
35612;SDS011;22054;51.646;7.078;2022-12-18T06:09:03;8.45;;;8.15;;
35612;SDS011;22054;51.646;7.078;2022-12-18T06:11:34;7.68;;;7.38;;
35612;SDS011;22054;51.646;7.078;2022-12-18T06:14:02;8.52;;;8.23;;
35612;SDS011;22054;51.646;7.078;2022-12-18T06:16:29;8.10;;;7.80;;
35612;SDS011;22054;51.646;7.078;2022-12-18T06:18:56;8.10;;;7.80;;
35612;SDS011;22054;51.646;7.078;2022-12-18T06:21:23;8.15;;;7.85;;
35612;SDS011;22054;51.646;7.078;2022-12-18T06:23:48;8.52;;;8.23;;
35612;SDS011;22054;51.646;7.078;2022-12-18T06:26:14;8.07;;;7.78;;
35612;SDS011;22054;51.646;7.078;2022-12-18T06:28:40;8.32;;;8.02;;
35612;SDS011;22054;51.646;7.078;2022-12-18T06:31:06;8.43;;;8.13;;
35612;SDS011;22054;51.646;7.078;2022-12-18T06:33:32;7.88;;;7.57;;
35612;SDS011;22054;51.646;7.078;2022-12-18T06:35:59;8.25;;;7.95;;
35612;SDS011;22054;51.646;7.078;2022-12-18T06:38:28;8.85;;;8.55;;
35612;SDS011;22054;51.646;7.078;2022-12-18T06:40:54;7.93;;;7.63;;
35612;SDS011;22054;51.646;7.078;2022-12-18T06:43:22;8.27;;;7.97;;
35612;SDS011;22054;51.646;7.078;2022-12-18T06:45:48;8.32;;;8.02;;
35612;SDS011;22054;51.646;7.078;2022-12-18T06:48:17;8.02;;;7.72;;
35612;SDS011;22054;51.646;7.078;2022-12-18T06:50:45;8.20;;;7.90;;
35612;SDS011;22054;51.646;7.078;2022-12-18T06:53:12;8.20;;;7.90;;
35612;SDS011;22054;51.646;7.078;2022-12-18T06:55:38;8.05;;;7.75;;
35612;SDS011;22054;51.646;7.078;2022-12-18T06:58:04;8.00;;;7.70;;
35612;SDS011;22054;51.646;7.078;2022-12-18T07:00:29;6.88;;;6.57;;
35612;SDS011;22054;51.646;7.078;2022-12-18T07:02:55;7.47;;;7.18;;
35612;SDS011;22054;51.646;7.078;2022-12-18T07:05:21;7.43;;;7.13;;
35612;SDS011;22054;51.646;7.078;2022-12-18T07:07:47;8.10;;;7.80;;
35612;SDS011;22054;51.646;7.078;2022-12-18T07:10:12;8.13;;;7.82;;
35612;SDS011;22054;51.646;7.078;2022-12-18T07:12:38;8.60;;;8.30;;
35612;SDS011;22054;51.646;7.078;2022-12-18T07:15:04;7.88;;;7.57;;
35612;SDS011;22054;51.646;7.078;2022-12-18T07:17:30;7.80;;;7.50;;
35612;SDS011;22054;51.646;7.078;2022-12-18T07:19:56;8.00;;;7.70;;
35612;SDS011;22054;51.646;7.078;2022-12-18T07:22:22;8.00;;;7.70;;
35612;SDS011;22054;51.646;7.078;2022-12-18T07:24:47;8.18;;;7.88;;
35612;SDS011;22054;51.646;7.078;2022-12-18T07:27:14;8.07;;;7.78;;
35612;SDS011;22054;51.646;7.078;2022-12-18T07:29:40;8.10;;;7.80;;
35612;SDS011;22054;51.646;7.078;2022-12-18T07:32:06;8.10;;;7.80;;
35612;SDS011;22054;51.646;7.078;2022-12-18T07:34:32;7.97;;;7.68;;
35612;SDS011;22054;51.646;7.078;2022-12-18T07:36:58;8.55;;;8.25;;
35612;SDS011;22054;51.646;7.078;2022-12-18T07:39:23;8.20;;;7.90;;
35612;SDS011;22054;51.646;7.078;2022-12-18T07:41:49;8.13;;;7.82;;
35612;SDS011;22054;51.646;7.078;2022-12-18T07:44:34;8.68;;;8.38;;
35612;SDS011;22054;51.646;7.078;2022-12-18T07:46:59;8.15;;;7.85;;
35612;SDS011;22054;51.646;7.078;2022-12-18T07:49:25;8.45;;;8.15;;
35612;SDS011;22054;51.646;7.078;2022-12-18T07:51:51;8.20;;;7.90;;
35612;SDS011;22054;51.646;7.078;2022-12-18T07:54:23;8.30;;;8.00;;
35612;SDS011;22054;51.646;7.078;2022-12-18T07:56:50;7.97;;;7.68;;
35612;SDS011;22054;51.646;7.078;2022-12-18T07:59:17;8.65;;;8.35;;
35612;SDS011;22054;51.646;7.078;2022-12-18T08:01:42;8.10;;;7.80;;
35612;SDS011;22054;51.646;7.078;2022-12-18T08:04:08;8.48;;;8.18;;
35612;SDS011;22054;51.646;7.078;2022-12-18T08:06:34;7.80;;;7.50;;
35612;SDS011;22054;51.646;7.078;2022-12-18T08:09:00;8.10;;;7.80;;
35612;SDS011;22054;51.646;7.078;2022-12-18T08:11:26;8.07;;;7.78;;
35612;SDS011;22054;51.646;7.078;2022-12-18T08:13:53;7.72;;;7.43;;
35612;SDS011;22054;51.646;7.078;2022-12-18T08:16:19;8.07;;;7.78;;
35612;SDS011;22054;51.646;7.078;2022-12-18T08:18:46;7.57;;;7.28;;
35612;SDS011;22054;51.646;7.078;2022-12-18T08:21:14;7.90;;;7.60;;
35612;SDS011;22054;51.646;7.078;2022-12-18T08:23:43;7.35;;;7.05;;
35612;SDS011;22054;51.646;7.078;2022-12-18T08:26:09;8.10;;;7.80;;
35612;SDS011;22054;51.646;7.078;2022-12-18T08:28:36;8.10;;;7.80;;
35612;SDS011;22054;51.646;7.078;2022-12-18T08:31:02;7.35;;;7.05;;
35612;SDS011;22054;51.646;7.078;2022-12-18T08:33:28;7.72;;;7.43;;
35612;SDS011;22054;51.646;7.078;2022-12-18T08:35:54;7.63;;;7.32;;
35612;SDS011;22054;51.646;7.078;2022-12-18T08:38:20;7.40;;;7.10;;
35612;SDS011;22054;51.646;7.078;2022-12-18T08:40:46;7.90;;;7.60;;
35612;SDS011;22054;51.646;7.078;2022-12-18T08:43:11;7.63;;;7.32;;
35612;SDS011;22054;51.646;7.078;2022-12-18T08:45:56;7.72;;;7.43;;
35612;SDS011;22054;51.646;7.078;2022-12-18T08:48:22;8.07;;;7.78;;
35612;SDS011;22054;51.646;7.078;2022-12-18T08:50:54;8.18;;;7.88;;
35612;SDS011;22054;51.646;7.078;2022-12-18T08:53:24;7.80;;;7.50;;
35612;SDS011;22054;51.646;7.078;2022-12-18T08:55:50;7.40;;;7.10;;
35612;SDS011;22054;51.646;7.078;2022-12-18T08:58:16;7.47;;;7.18;;
35612;SDS011;22054;51.646;7.078;2022-12-18T09:00:42;7.70;;;7.40;;
35612;SDS011;22054;51.646;7.078;2022-12-18T09:03:15;7.60;;;7.30;;
35612;SDS011;22054;51.646;7.078;2022-12-18T09:05:45;7.68;;;7.38;;
35612;SDS011;22054;51.646;7.078;2022-12-18T09:08:11;7.70;;;7.40;;
35612;SDS011;22054;51.646;7.078;2022-12-18T09:10:43;7.20;;;6.90;;
35612;SDS011;22054;51.646;7.078;2022-12-18T09:13:11;7.72;;;7.43;;
35612;SDS011;22054;51.646;7.078;2022-12-18T09:15:41;7.40;;;7.10;;
35612;SDS011;22054;51.646;7.078;2022-12-18T09:18:12;7.57;;;7.28;;
35612;SDS011;22054;51.646;7.078;2022-12-18T09:20:39;7.20;;;6.90;;
35612;SDS011;22054;51.646;7.078;2022-12-18T09:23:05;7.78;;;7.47;;
35612;SDS011;22054;51.646;7.078;2022-12-18T09:25:32;7.55;;;7.25;;
35612;SDS011;22054;51.646;7.078;2022-12-18T09:28:01;8.68;;;8.38;;
35612;SDS011;22054;51.646;7.078;2022-12-18T09:30:41;7.60;;;7.30;;
35612;SDS011;22054;51.646;7.078;2022-12-18T09:35:36;7.35;;;7.05;;
35612;SDS011;22054;51.646;7.078;2022-12-18T09:38:03;7.70;;;7.40;;
35612;SDS011;22054;51.646;7.078;2022-12-18T09:40:32;7.15;;;6.85;;
35612;SDS011;22054;51.646;7.078;2022-12-18T09:43:09;8.13;;;7.82;;
35612;SDS011;22054;51.646;7.078;2022-12-18T09:46:11;7.25;;;6.95;;
35612;SDS011;22054;51.646;7.078;2022-12-18T09:48:57;7.05;;;6.75;;
35612;SDS011;22054;51.646;7.078;2022-12-18T09:51:32;7.35;;;7.05;;
35612;SDS011;22054;51.646;7.078;2022-12-18T09:54:06;7.40;;;7.10;;
35612;SDS011;22054;51.646;7.078;2022-12-18T09:56:39;7.25;;;6.95;;
35612;SDS011;22054;51.646;7.078;2022-12-18T09:59:13;7.80;;;7.50;;
35612;SDS011;22054;51.646;7.078;2022-12-18T10:02:15;7.18;;;6.88;;
35612;SDS011;22054;51.646;7.078;2022-12-18T10:04:47;7.65;;;7.35;;
35612;SDS011;22054;51.646;7.078;2022-12-18T10:07:42;8.52;;;8.23;;
35612;SDS011;22054;51.646;7.078;2022-12-18T10:10:46;7.55;;;7.25;;
35612;SDS011;22054;51.646;7.078;2022-12-18T10:13:31;8.55;;;8.25;;
35612;SDS011;22054;51.646;7.078;2022-12-18T10:16:06;8.30;;;8.00;;
35612;SDS011;22054;51.646;7.078;2022-12-18T10:25:12;8.40;;;8.10;;
35612;SDS011;22054;51.646;7.078;2022-12-18T10:27:42;7.80;;;7.50;;
35612;SDS011;22054;51.646;7.078;2022-12-18T10:30:12;7.50;;;7.20;;
35612;SDS011;22054;51.646;7.078;2022-12-18T10:32:41;7.20;;;6.90;;
35612;SDS011;22054;51.646;7.078;2022-12-18T10:35:07;7.00;;;6.70;;
35612;SDS011;22054;51.646;7.078;2022-12-18T10:38:00;7.10;;;6.80;;
35612;SDS011;22054;51.646;7.078;2022-12-18T10:40:26;6.70;;;6.40;;
35612;SDS011;22054;51.646;7.078;2022-12-18T10:43:11;7.10;;;6.80;;
35612;SDS011;22054;51.646;7.078;2022-12-18T10:45:39;7.50;;;7.20;;
35612;SDS011;22054;51.646;7.078;2022-12-18T10:48:21;7.50;;;7.20;;
35612;SDS011;22054;51.646;7.078;2022-12-18T10:50:49;7.43;;;7.13;;
35612;SDS011;22054;51.646;7.078;2022-12-18T10:53:23;6.50;;;6.30;;
35612;SDS011;22054;51.646;7.078;2022-12-18T10:55:58;7.20;;;6.90;;
35612;SDS011;22054;51.646;7.078;2022-12-18T10:58:33;7.10;;;6.80;;
35612;SDS011;22054;51.646;7.078;2022-12-18T11:01:12;7.60;;;7.30;;
35612;SDS011;22054;51.646;7.078;2022-12-18T11:03:45;6.40;;;6.20;;
35612;SDS011;22054;51.646;7.078;2022-12-18T11:06:25;6.38;;;6.18;;
35612;SDS011;22054;51.646;7.078;2022-12-18T11:08:58;6.95;;;6.65;;
35612;SDS011;22054;51.646;7.078;2022-12-18T11:11:29;6.70;;;6.40;;
35612;SDS011;22054;51.646;7.078;2022-12-18T11:16:36;6.32;;;6.13;;
35612;SDS011;22054;51.646;7.078;2022-12-18T11:21:49;6.22;;;6.03;;
35612;SDS011;22054;51.646;7.078;2022-12-18T11:24:19;6.22;;;6.03;;
35612;SDS011;22054;51.646;7.078;2022-12-18T11:27:05;6.72;;;6.43;;
35612;SDS011;22054;51.646;7.078;2022-12-18T11:29:43;6.75;;;6.45;;
35612;SDS011;22054;51.646;7.078;2022-12-18T11:37:54;6.85;;;6.55;;
35612;SDS011;22054;51.646;7.078;2022-12-18T11:40:35;7.03;;;6.72;;
35612;SDS011;22054;51.646;7.078;2022-12-18T11:45:49;6.47;;;6.28;;
35612;SDS011;22054;51.646;7.078;2022-12-18T11:48:44;6.85;;;6.55;;
35612;SDS011;22054;51.646;7.078;2022-12-18T11:51:20;6.75;;;6.45;;
35612;SDS011;22054;51.646;7.078;2022-12-18T11:54:13;6.00;;;5.80;;
35612;SDS011;22054;51.646;7.078;2022-12-18T11:57:04;6.40;;;6.20;;
35612;SDS011;22054;51.646;7.078;2022-12-18T12:05:41;6.40;;;6.20;;
35612;SDS011;22054;51.646;7.078;2022-12-18T12:14:23;6.68;;;6.38;;
35612;SDS011;22054;51.646;7.078;2022-12-18T12:20:14;6.82;;;6.53;;
35612;SDS011;22054;51.646;7.078;2022-12-18T12:23:08;7.13;;;6.82;;
35612;SDS011;22054;51.646;7.078;2022-12-18T12:32:09;6.47;;;6.28;;
35612;SDS011;22054;51.646;7.078;2022-12-18T12:37:53;6.93;;;6.63;;
35612;SDS011;22054;51.646;7.078;2022-12-18T12:41:03;6.78;;;6.47;;
35612;SDS011;22054;51.646;7.078;2022-12-18T12:43:51;6.90;;;6.60;;
35612;SDS011;22054;51.646;7.078;2022-12-18T12:46:21;7.10;;;6.80;;
35612;SDS011;22054;51.646;7.078;2022-12-18T12:48:52;6.75;;;6.45;;
35612;SDS011;22054;51.646;7.078;2022-12-18T12:53:48;6.90;;;6.60;;
35612;SDS011;22054;51.646;7.078;2022-12-18T12:56:16;7.05;;;6.75;;
35612;SDS011;22054;51.646;7.078;2022-12-18T12:59:02;6.57;;;6.30;;
35612;SDS011;22054;51.646;7.078;2022-12-18T13:04:46;6.30;;;6.10;;
35612;SDS011;22054;51.646;7.078;2022-12-18T13:07:34;6.60;;;6.30;;
35612;SDS011;22054;51.646;7.078;2022-12-18T13:16:03;7.20;;;6.90;;
35612;SDS011;22054;51.646;7.078;2022-12-18T13:18:31;6.93;;;6.63;;
35612;SDS011;22054;51.646;7.078;2022-12-18T13:25:49;7.32;;;7.03;;
35612;SDS011;22054;51.646;7.078;2022-12-18T13:30:58;6.60;;;6.35;;
35612;SDS011;22054;51.646;7.078;2022-12-18T13:41:35;6.45;;;6.25;;
35612;SDS011;22054;51.646;7.078;2022-12-18T13:47:26;7.22;;;6.93;;
35612;SDS011;22054;51.646;7.078;2022-12-18T13:50:09;7.35;;;7.05;;
35612;SDS011;22054;51.646;7.078;2022-12-18T13:52:55;7.60;;;7.30;;
35612;SDS011;22054;51.646;7.078;2022-12-18T13:55:21;7.65;;;7.35;;
35612;SDS011;22054;51.646;7.078;2022-12-18T13:57:47;6.90;;;6.60;;
35612;SDS011;22054;51.646;7.078;2022-12-18T14:00:23;6.80;;;6.50;;
35612;SDS011;22054;51.646;7.078;2022-12-18T14:02:53;7.00;;;6.70;;
35612;SDS011;22054;51.646;7.078;2022-12-18T14:05:24;6.68;;;6.38;;
35612;SDS011;22054;51.646;7.078;2022-12-18T14:07:53;6.53;;;6.28;;
35612;SDS011;22054;51.646;7.078;2022-12-18T14:10:19;6.30;;;6.10;;
35612;SDS011;22054;51.646;7.078;2022-12-18T14:12:49;6.55;;;6.32;;
35612;SDS011;22054;51.646;7.078;2022-12-18T14:15:24;6.72;;;6.43;;
35612;SDS011;22054;51.646;7.078;2022-12-18T14:20:24;6.80;;;6.50;;
35612;SDS011;22054;51.646;7.078;2022-12-18T14:22:52;6.90;;;6.60;;
35612;SDS011;22054;51.646;7.078;2022-12-18T14:25:29;6.82;;;6.53;;
35612;SDS011;22054;51.646;7.078;2022-12-18T14:30:41;8.05;;;7.75;;
35612;SDS011;22054;51.646;7.078;2022-12-18T14:35:57;7.43;;;7.13;;
35612;SDS011;22054;51.646;7.078;2022-12-18T14:38:36;7.50;;;7.20;;
35612;SDS011;22054;51.646;7.078;2022-12-18T14:41:05;7.28;;;6.97;;
35612;SDS011;22054;51.646;7.078;2022-12-18T14:43:36;7.28;;;6.97;;
35612;SDS011;22054;51.646;7.078;2022-12-18T14:46:05;7.53;;;7.22;;
35612;SDS011;22054;51.646;7.078;2022-12-18T14:48:52;7.68;;;7.38;;
35612;SDS011;22054;51.646;7.078;2022-12-18T14:51:27;8.02;;;7.72;;
35612;SDS011;22054;51.646;7.078;2022-12-18T14:53:59;7.90;;;7.60;;
35612;SDS011;22054;51.646;7.078;2022-12-18T14:56:34;7.35;;;7.05;;
35612;SDS011;22054;51.646;7.078;2022-12-18T14:59:03;7.78;;;7.47;;
35612;SDS011;22054;51.646;7.078;2022-12-18T15:01:53;7.15;;;6.85;;
35612;SDS011;22054;51.646;7.078;2022-12-18T15:04:43;7.43;;;7.13;;
35612;SDS011;22054;51.646;7.078;2022-12-18T15:12:49;7.07;;;6.78;;
35612;SDS011;22054;51.646;7.078;2022-12-18T15:20:31;7.30;;;7.00;;
35612;SDS011;22054;51.646;7.078;2022-12-18T15:23:24;7.18;;;6.88;;
35612;SDS011;22054;51.646;7.078;2022-12-18T15:25:56;7.40;;;7.10;;
35612;SDS011;22054;51.646;7.078;2022-12-18T15:28:31;6.95;;;6.65;;
35612;SDS011;22054;51.646;7.078;2022-12-18T15:33:37;6.95;;;6.65;;
35612;SDS011;22054;51.646;7.078;2022-12-18T15:36:07;7.20;;;6.90;;
35612;SDS011;22054;51.646;7.078;2022-12-18T15:38:35;7.47;;;7.18;;
35612;SDS011;22054;51.646;7.078;2022-12-18T15:41:01;7.07;;;6.78;;
35612;SDS011;22054;51.646;7.078;2022-12-18T15:43:27;6.85;;;6.55;;
35612;SDS011;22054;51.646;7.078;2022-12-18T15:46:03;7.32;;;7.03;;
35612;SDS011;22054;51.646;7.078;2022-12-18T15:48:40;7.20;;;6.90;;
35612;SDS011;22054;51.646;7.078;2022-12-18T15:51:25;7.50;;;7.20;;
35612;SDS011;22054;51.646;7.078;2022-12-18T15:53:59;7.50;;;7.20;;
35612;SDS011;22054;51.646;7.078;2022-12-18T15:56:28;7.07;;;6.78;;
35612;SDS011;22054;51.646;7.078;2022-12-18T15:59:17;7.25;;;6.95;;
35612;SDS011;22054;51.646;7.078;2022-12-18T16:01:45;6.85;;;6.55;;
35612;SDS011;22054;51.646;7.078;2022-12-18T16:04:14;6.90;;;6.60;;
35612;SDS011;22054;51.646;7.078;2022-12-18T16:06:45;7.15;;;6.85;;
35612;SDS011;22054;51.646;7.078;2022-12-18T16:09:11;7.05;;;6.75;;
35612;SDS011;22054;51.646;7.078;2022-12-18T16:11:37;7.40;;;7.10;;
35612;SDS011;22054;51.646;7.078;2022-12-18T16:14:20;6.90;;;6.60;;
35612;SDS011;22054;51.646;7.078;2022-12-18T16:16:52;6.90;;;6.60;;
35612;SDS011;22054;51.646;7.078;2022-12-18T16:19:23;6.72;;;6.43;;
35612;SDS011;22054;51.646;7.078;2022-12-18T16:21:50;6.90;;;6.60;;
35612;SDS011;22054;51.646;7.078;2022-12-18T16:24:19;6.13;;;5.93;;
35612;SDS011;22054;51.646;7.078;2022-12-18T16:26:47;6.45;;;6.25;;
35612;SDS011;22054;51.646;7.078;2022-12-18T16:29:14;6.20;;;6.00;;
35612;SDS011;22054;51.646;7.078;2022-12-18T16:31:40;6.53;;;6.30;;
35612;SDS011;22054;51.646;7.078;2022-12-18T16:34:10;6.90;;;6.60;;
35612;SDS011;22054;51.646;7.078;2022-12-18T16:36:37;6.53;;;6.25;;
35612;SDS011;22054;51.646;7.078;2022-12-18T16:39:02;6.07;;;5.88;;
35612;SDS011;22054;51.646;7.078;2022-12-18T16:41:31;6.47;;;6.22;;
35612;SDS011;22054;51.646;7.078;2022-12-18T16:43:57;5.90;;;5.70;;
35612;SDS011;22054;51.646;7.078;2022-12-18T16:46:26;6.88;;;6.57;;
35612;SDS011;22054;51.646;7.078;2022-12-18T16:48:52;6.65;;;6.35;;
35612;SDS011;22054;51.646;7.078;2022-12-18T16:51:18;6.57;;;6.32;;
35612;SDS011;22054;51.646;7.078;2022-12-18T16:53:44;6.65;;;6.35;;
35612;SDS011;22054;51.646;7.078;2022-12-18T16:56:09;6.63;;;6.32;;
35612;SDS011;22054;51.646;7.078;2022-12-18T16:58:35;6.38;;;6.18;;
35612;SDS011;22054;51.646;7.078;2022-12-18T17:01:01;6.38;;;6.18;;
35612;SDS011;22054;51.646;7.078;2022-12-18T17:03:32;7.07;;;6.78;;
35612;SDS011;22054;51.646;7.078;2022-12-18T17:06:01;6.63;;;6.32;;
35612;SDS011;22054;51.646;7.078;2022-12-18T17:08:28;6.38;;;6.18;;
35612;SDS011;22054;51.646;7.078;2022-12-18T17:10:54;6.30;;;6.10;;
35612;SDS011;22054;51.646;7.078;2022-12-18T17:13:20;6.40;;;6.20;;
35612;SDS011;22054;51.646;7.078;2022-12-18T17:15:50;6.55;;;6.28;;
35612;SDS011;22054;51.646;7.078;2022-12-18T17:18:16;6.18;;;5.97;;